Howland, Ohio
Current Conditions -  °F | °C
As of 1:51 PM on Tuesday 21 Oct 2014 (Local Time) from KYNG Reporting Station
Light Rain Light Rain  
Wind Chill:   Ceiling: 500
Heat Index:   Visibility: 10mi
Dew Point:   Wind: 13mph
Humidity: 90%   Direction: 310°NW
Pressure: 29.91"   Gusts: NA
Location:  41.234°N, 80.7496°W
Report Text: KYNG 211751Z 31011KT 10SM -RA BKN005 OVC023 09/08 A2991 RMK AO2 SLP131 P0009 60016 T00940078 10106 20089 53005
Loading
Personal Weather Stations






























Interactive Weather Map
Tropical Storm Tracking
New forecast layout! Learn more

10-Day Weather Forecast

Advertisements
Track Severe Weather on mobile